X  Chiuso Dati meteorologici dell'aviazione (METAR)     EHKD De Kooy Airport
Temperatura
16°C Temperatura
12°C Punto di rugiada
77% Umidità



Vento
13 KM/O
8 MPH
4 M/S
7 KTS



330°
NNO
Condizioni attuali

Parzialmente nuvoloso Parzialmente nuvoloso
Pressione 1019.98 (hPa) - 30.12 (inHg)
Visibilità 6 (miglio) - 9.7 (km)
Aeroporto
Codice-Aeroporto EHKD

Posizione: De Kooy Airport
Distanza: 34 (km)

Metar:
EHKD 240237Z AUTO 33007KT 300V010 9999 FEW020 SCT024 OVC210 16/12 Q1020 BLU

Ore: 24-07-2024 04:37 CEST